Time;durP1;ratioP1;P1;durP2;ratioP2;P2;SDS_P1;SDS_P2;PMS_P1;PMS_P2;Temp;Humidity;BMP_temperature;BMP_pressure;BME280_temperature;BME280_humidity;BME280_pressure;Samples;Min_cycle;Max_cycle;Signal;HPM_P1;HPM_P2
2021/12/28 00:00:08;;;;;;;0.20;0.20;;;;;;;;;;4215283;28;20044;-35
2021/12/28 00:02:12;;;;;;;0.32;0.30;;;;;;;;;;4215413;28;20055;-34
2021/12/28 00:04:13;;;;;;;0.20;0.20;;;;;;;;;;4215178;28;20044;-34
2021/12/28 00:06:15;;;;;;;0.20;0.20;;;;;;;;;;4215145;28;20544;-34
2021/12/28 00:08:18;;;;;;;0.20;0.13;;;;;;;;;;4196804;28;20137;-34
2021/12/28 00:10:20;;;;;;;0.00;0.00;;;;;;;;;;4197223;28;20213;-35
2021/12/28 00:12:21;;;;;;;0.20;0.20;;;;;;;;;;4214945;28;20097;-33
2021/12/28 00:14:23;;;;;;;0.47;0.28;;;;;;;;;;4215043;28;20048;-34
2021/12/28 00:16:31;;;;;;;0.73;0.30;;;;;;;;;;4215231;28;20060;-34
2021/12/28 00:18:32;;;;;;;0.20;0.20;;;;;;;;;;4215076;28;20096;-34
2021/12/28 00:20:44;;;;;;;0.35;0.20;;;;;;;;;;4214793;28;20099;-34
2021/12/28 00:22:45;;;;;;;0.20;0.20;;;;;;;;;;4214466;28;20048;-34
2021/12/28 00:24:48;;;;;;;0.20;0.20;;;;;;;;;;4197559;28;20120;-34
2021/12/28 00:26:49;;;;;;;0.15;0.15;;;;;;;;;;4197879;28;20377;-34
2021/12/28 00:28:50;;;;;;;0.20;0.20;;;;;;;;;;4197915;28;20052;-34
2021/12/28 00:30:52;;;;;;;0.10;0.10;;;;;;;;;;4198054;28;20506;-34
2021/12/28 00:32:53;;;;;;;0.57;0.30;;;;;;;;;;4197841;28;20052;-34
2021/12/28 00:34:54;;;;;;;0.20;0.20;;;;;;;;;;4198071;28;20448;-33
2021/12/28 00:36:55;;;;;;;0.30;0.20;;;;;;;;;;4197381;28;20060;-36
2021/12/28 00:38:56;;;;;;;0.22;0.22;;;;;;;;;;4197776;28;20173;-34
2021/12/28 00:40:59;;;;;;;0.20;0.20;;;;;;;;;;4180330;28;20087;-34
2021/12/28 00:43:00;;;;;;;0.25;0.22;;;;;;;;;;4179883;28;20049;-34
2021/12/28 00:45:01;;;;;;;0.20;0.20;;;;;;;;;;4180076;28;20118;-34
2021/12/28 00:47:02;;;;;;;0.15;0.15;;;;;;;;;;4197772;28;20083;-34
2021/12/28 00:49:03;;;;;;;0.10;0.10;;;;;;;;;;4197835;28;20052;-34
2021/12/28 00:51:05;;;;;;;0.20;0.20;;;;;;;;;;4180143;28;20075;-34
2021/12/28 00:53:06;;;;;;;0.10;0.10;;;;;;;;;;4197170;28;20546;-36
2021/12/28 00:55:07;;;;;;;0.28;0.28;;;;;;;;;;4197897;28;20098;-35
2021/12/28 00:57:08;;;;;;;0.32;0.28;;;;;;;;;;4197679;28;20053;-35
2021/12/28 00:59:09;;;;;;;0.32;0.30;;;;;;;;;;4197492;28;20136;-35
2021/12/28 01:01:10;;;;;;;0.10;0.10;;;;;;;;;;4197558;28;20079;-35
2021/12/28 01:03:11;;;;;;;0.20;0.20;;;;;;;;;;4197336;28;20565;-35
2021/12/28 01:05:12;;;;;;;0.20;0.20;;;;;;;;;;4197791;28;20053;-35
2021/12/28 01:07:13;;;;;;;0.25;0.20;;;;;;;;;;4197103;28;20094;-35
2021/12/28 01:09:14;;;;;;;0.20;0.20;;;;;;;;;;4197506;28;20094;-34
2021/12/28 01:11:15;;;;;;;0.28;0.20;;;;;;;;;;4197443;28;20098;-34
2021/12/28 01:13:17;;;;;;;0.20;0.20;;;;;;;;;;4197512;28;20052;-34
2021/12/28 01:15:18;;;;;;;0.22;0.22;;;;;;;;;;4197361;28;20048;-35
2021/12/28 01:17:19;;;;;;;0.20;0.17;;;;;;;;;;4197207;28;20098;-34
2021/12/28 01:19:20;;;;;;;0.15;0.15;;;;;;;;;;4197236;28;20437;-34
2021/12/28 01:21:21;;;;;;;0.25;0.10;;;;;;;;;;4197403;28;20106;-34
2021/12/28 01:23:22;;;;;;;0.32;0.20;;;;;;;;;;4201717;28;20381;-34
2021/12/28 01:25:25;;;;;;;0.60;0.15;;;;;;;;;;4196143;28;20045;-34
2021/12/28 01:27:26;;;;;;;0.20;0.20;;;;;;;;;;4213797;28;20446;-34
2021/12/28 01:29:27;;;;;;;0.28;0.20;;;;;;;;;;4214005;28;20056;-34
2021/12/28 01:31:28;;;;;;;0.40;0.30;;;;;;;;;;4213891;28;20051;-34
2021/12/28 01:33:30;;;;;;;0.38;0.30;;;;;;;;;;4213838;28;20070;-34
2021/12/28 01:35:31;;;;;;;0.10;0.10;;;;;;;;;;4214100;28;20052;-35
2021/12/28 01:37:32;;;;;;;0.20;0.20;;;;;;;;;;4212047;28;20044;-34
2021/12/28 01:39:33;;;;;;;0.25;0.20;;;;;;;;;;4213692;28;20052;-34
2021/12/28 01:41:34;;;;;;;0.10;0.10;;;;;;;;;;4213964;28;20081;-35
2021/12/28 01:43:39;;;;;;;0.13;0.13;;;;;;;;;;4213435;28;20048;-35
2021/12/28 01:45:46;;;;;;;0.35;0.35;;;;;;;;;;4189956;28;20053;-35
2021/12/28 01:47:47;;;;;;;0.20;0.20;;;;;;;;;;4180673;28;20107;-34
2021/12/28 01:49:48;;;;;;;0.20;0.20;;;;;;;;;;4180402;28;20049;-34
2021/12/28 01:51:49;;;;;;;0.30;0.28;;;;;;;;;;4180023;28;20102;-35
2021/12/28 01:53:51;;;;;;;0.50;0.20;;;;;;;;;;4180548;28;20084;-34
2021/12/28 01:55:54;;;;;;;0.30;0.30;;;;;;;;;;4180534;28;20053;-34
2021/12/28 01:57:55;;;;;;;0.20;0.20;;;;;;;;;;4180273;28;20049;-34
2021/12/28 01:59:56;;;;;;;0.20;0.10;;;;;;;;;;4180400;28;20060;-34
2021/12/28 02:01:56;;;;;;;0.20;0.20;;;;;;;;;;4180176;28;20095;-34
2021/12/28 02:03:58;;;;;;;0.10;0.10;;;;;;;;;;4180323;28;20087;-33
2021/12/28 02:05:59;;;;;;;0.32;0.20;;;;;;;;;;4180594;28;20045;-34
2021/12/28 02:07:59;;;;;;;0.20;0.20;;;;;;;;;;4193249;28;20114;-34
2021/12/28 02:10:00;;;;;;;0.30;0.30;;;;;;;;;;4196809;28;20101;-35
2021/12/28 02:12:02;;;;;;;0.20;0.20;;;;;;;;;;4196746;28;20048;-35
2021/12/28 02:14:05;;;;;;;0.40;0.30;;;;;;;;;;4197082;28;20102;-35
2021/12/28 02:16:06;;;;;;;0.20;0.20;;;;;;;;;;4197114;28;20052;-34
2021/12/28 02:18:09;;;;;;;0.20;0.20;;;;;;;;;;4196741;28;20048;-34
2021/12/28 02:20:11;;;;;;;0.20;0.20;;;;;;;;;;4178964;28;20072;-34
2021/12/28 02:22:12;;;;;;;0.20;0.20;;;;;;;;;;4196436;28;20098;-36
2021/12/28 02:24:13;;;;;;;0.22;0.22;;;;;;;;;;4190874;28;20562;-35
2021/12/28 02:26:14;;;;;;;0.20;0.20;;;;;;;;;;4196847;28;20052;-34
2021/12/28 02:28:15;;;;;;;0.25;0.20;;;;;;;;;;4196682;28;20101;-34
2021/12/28 02:30:18;;;;;;;0.20;0.20;;;;;;;;;;4196768;28;20048;-35
2021/12/28 02:32:19;;;;;;;0.17;0.17;;;;;;;;;;4196597;28;20110;-34
2021/12/28 02:34:23;;;;;;;0.68;0.25;;;;;;;;;;4196991;28;20048;-34
2021/12/28 02:36:26;;;;;;;0.30;0.20;;;;;;;;;;4195491;28;20053;-34
2021/12/28 02:38:27;;;;;;;0.30;0.30;;;;;;;;;;4194721;28;20435;-35
2021/12/28 02:40:29;;;;;;;0.20;0.10;;;;;;;;;;4196970;28;20048;-35
2021/12/28 02:42:30;;;;;;;0.20;0.20;;;;;;;;;;4196502;28;20049;-34
2021/12/28 02:44:31;;;;;;;0.20;0.20;;;;;;;;;;4196648;28;20090;-33
2021/12/28 02:46:32;;;;;;;0.20;0.20;;;;;;;;;;4196687;28;20507;-34
2021/12/28 02:48:34;;;;;;;0.20;0.20;;;;;;;;;;4197874;28;20385;-35
2021/12/28 02:50:36;;;;;;;0.30;0.30;;;;;;;;;;4199707;28;20484;-34
2021/12/28 02:52:37;;;;;;;0.10;0.10;;;;;;;;;;4199151;28;20098;-34
2021/12/28 02:54:39;;;;;;;0.30;0.25;;;;;;;;;;4199606;28;20102;-34
2021/12/28 02:56:40;;;;;;;0.25;0.20;;;;;;;;;;4199762;28;20105;-34
2021/12/28 02:58:42;;;;;;;0.32;0.30;;;;;;;;;;4199834;28;20511;-35
2021/12/28 03:00:45;;;;;;;0.20;0.20;;;;;;;;;;4199578;28;20106;-35
2021/12/28 03:02:46;;;;;;;0.20;0.20;;;;;;;;;;4199447;28;20056;-34
2021/12/28 03:04:47;;;;;;;0.15;0.13;;;;;;;;;;4199406;28;20062;-35
2021/12/28 03:06:48;;;;;;;0.20;0.20;;;;;;;;;;4199261;28;20045;-34
2021/12/28 03:08:53;;;;;;;0.20;0.20;;;;;;;;;;4197992;28;20041;-33
2021/12/28 03:10:55;;;;;;;0.40;0.30;;;;;;;;;;4199702;28;20057;-34
2021/12/28 03:12:57;;;;;;;0.40;0.30;;;;;;;;;;4199227;28;20056;-34
2021/12/28 03:14:58;;;;;;;0.20;0.20;;;;;;;;;;4199183;28;20443;-36
2021/12/28 03:16:59;;;;;;;0.30;0.30;;;;;;;;;;4199134;28;20052;-34
2021/12/28 03:19:00;;;;;;;0.17;0.17;;;;;;;;;;4199198;28;20102;-34
2021/12/28 03:21:02;;;;;;;0.50;0.38;;;;;;;;;;4199301;28;20480;-34
2021/12/28 03:23:03;;;;;;;0.75;0.28;;;;;;;;;;4200887;28;20052;-36
2021/12/28 03:25:05;;;;;;;0.35;0.20;;;;;;;;;;4215890;28;20073;-34
2021/12/28 03:27:06;;;;;;;0.30;0.20;;;;;;;;;;4215743;28;20355;-36
2021/12/28 03:29:07;;;;;;;0.20;0.20;;;;;;;;;;4215808;28;20060;-34
2021/12/28 03:31:09;;;;;;;0.20;0.20;;;;;;;;;;4216038;28;20052;-34
2021/12/28 03:33:10;;;;;;;0.20;0.20;;;;;;;;;;4215642;28;20425;-34
2021/12/28 03:35:13;;;;;;;0.30;0.22;;;;;;;;;;4215666;28;20097;-34
2021/12/28 03:37:14;;;;;;;0.28;0.20;;;;;;;;;;4197228;28;20412;-34
2021/12/28 03:39:15;;;;;;;0.10;0.10;;;;;;;;;;4215724;28;20090;-34
2021/12/28 03:41:17;;;;;;;0.20;0.20;;;;;;;;;;4215807;28;20528;-34
2021/12/28 03:43:18;;;;;;;0.20;0.20;;;;;;;;;;4215397;28;20048;-34
2021/12/28 03:45:19;;;;;;;0.40;0.32;;;;;;;;;;4215444;28;20048;-34
2021/12/28 03:47:20;;;;;;;0.30;0.20;;;;;;;;;;4215617;28;20089;-34
2021/12/28 03:49:21;;;;;;;0.20;0.20;;;;;;;;;;4215755;28;20522;-35
2021/12/28 03:51:22;;;;;;;0.20;0.20;;;;;;;;;;4215488;28;20491;-34
2021/12/28 03:53:23;;;;;;;0.20;0.20;;;;;;;;;;4215323;28;20056;-35
2021/12/28 03:55:25;;;;;;;0.20;0.20;;;;;;;;;;4215397;28;20055;-36
2021/12/28 03:57:26;;;;;;;0.73;0.25;;;;;;;;;;4215172;28;20047;-35
2021/12/28 03:59:27;;;;;;;0.10;0.10;;;;;;;;;;4214720;28;20491;-35
2021/12/28 04:01:28;;;;;;;0.15;0.15;;;;;;;;;;4215287;28;20170;-36
2021/12/28 04:03:29;;;;;;;0.47;0.25;;;;;;;;;;4215344;28;20082;-35
2021/12/28 04:05:30;;;;;;;0.30;0.20;;;;;;;;;;4215378;28;20472;-35
2021/12/28 04:07:31;;;;;;;0.20;0.20;;;;;;;;;;4214854;28;20094;-35
2021/12/28 04:09:59;;;;;;;0.28;0.25;;;;;;;;;;4215265;28;20052;-35
2021/12/28 04:11:54;;;;;;;0.20;0.20;;;;;;;;;;4215062;28;20059;-34
2021/12/28 04:13:57;;;;;;;0.20;0.15;;;;;;;;;;4197088;28;20056;-35
2021/12/28 04:15:58;;;;;;;0.30;0.20;;;;;;;;;;4197061;28;20048;-35
2021/12/28 04:17:59;;;;;;;0.13;0.13;;;;;;;;;;4214798;28;20095;-35
2021/12/28 04:20:00;;;;;;;0.20;0.20;;;;;;;;;;4214184;28;20091;-35
2021/12/28 04:22:01;;;;;;;0.20;0.20;;;;;;;;;;4213684;28;20083;-35
2021/12/28 04:24:02;;;;;;;0.10;0.10;;;;;;;;;;4214086;28;20052;-35
2021/12/28 04:26:04;;;;;;;0.30;0.30;;;;;;;;;;4196300;28;20474;-34
2021/12/28 04:28:05;;;;;;;0.70;0.30;;;;;;;;;;4196244;28;20044;-35
2021/12/28 04:30:06;;;;;;;0.20;0.20;;;;;;;;;;4214632;28;20508;-34
2021/12/28 04:32:07;;;;;;;0.45;0.40;;;;;;;;;;4214489;28;20113;-34
2021/12/28 04:34:08;;;;;;;0.30;0.30;;;;;;;;;;4214458;28;20048;-34
2021/12/28 04:36:11;;;;;;;0.75;0.20;;;;;;;;;;4213602;28;20398;-34
2021/12/28 04:38:12;;;;;;;0.20;0.20;;;;;;;;;;4213485;28;20063;-35
2021/12/28 04:40:13;;;;;;;0.20;0.20;;;;;;;;;;4214296;28;20048;-34
2021/12/28 04:42:14;;;;;;;0.20;0.20;;;;;;;;;;4214497;28;20548;-35
2021/12/28 04:44:22;;;;;;;0.17;0.17;;;;;;;;;;4214526;28;20044;-34
2021/12/28 04:46:23;;;;;;;0.10;0.10;;;;;;;;;;4214379;28;20093;-34
2021/12/28 04:48:24;;;;;;;0.20;0.20;;;;;;;;;;4213955;28;20052;-34
2021/12/28 04:50:26;;;;;;;0.30;0.28;;;;;;;;;;4214730;28;20062;-34
2021/12/28 04:52:30;;;;;;;0.20;0.20;;;;;;;;;;4213980;28;20060;-35
2021/12/28 04:54:31;;;;;;;0.20;0.20;;;;;;;;;;4214506;28;20051;-35
2021/12/28 04:56:32;;;;;;;0.20;0.20;;;;;;;;;;4214371;28;20052;-34
2021/12/28 04:58:33;;;;;;;0.20;0.20;;;;;;;;;;4214227;28;20083;-34
2021/12/28 05:00:34;;;;;;;0.28;0.28;;;;;;;;;;4214649;28;20040;-35
2021/12/28 05:02:35;;;;;;;0.10;0.10;;;;;;;;;;4213656;28;20541;-34
2021/12/28 05:04:36;;;;;;;0.10;0.10;;;;;;;;;;4214408;28;20052;-35
2021/12/28 05:06:38;;;;;;;0.17;0.17;;;;;;;;;;4214265;28;20373;-34
2021/12/28 05:08:39;;;;;;;0.20;0.20;;;;;;;;;;4214155;28;20399;-34
2021/12/28 05:10:41;;;;;;;0.20;0.20;;;;;;;;;;4214618;28;20172;-34
2021/12/28 05:12:43;;;;;;;0.10;0.10;;;;;;;;;;4214243;28;20101;-35
2021/12/28 05:14:43;;;;;;;0.22;0.22;;;;;;;;;;4214638;28;20105;-34
2021/12/28 05:16:45;;;;;;;0.30;0.30;;;;;;;;;;4214254;28;20040;-35
2021/12/28 05:18:46;;;;;;;0.20;0.20;;;;;;;;;;4214209;28;20044;-35
2021/12/28 05:20:47;;;;;;;0.10;0.10;;;;;;;;;;4214039;28;20188;-36
2021/12/28 05:22:48;;;;;;;0.13;0.13;;;;;;;;;;4213509;28;20134;-34
2021/12/28 05:24:49;;;;;;;0.10;0.10;;;;;;;;;;4214058;28;20139;-35
2021/12/28 05:26:50;;;;;;;0.20;0.20;;;;;;;;;;4214143;28;20048;-34
2021/12/28 05:28:51;;;;;;;0.73;0.30;;;;;;;;;;4214344;28;20511;-34
2021/12/28 05:30:52;;;;;;;0.20;0.20;;;;;;;;;;4214147;28;20093;-35
2021/12/28 05:32:54;;;;;;;0.30;0.30;;;;;;;;;;4213893;28;20052;-35
2021/12/28 05:34:55;;;;;;;0.50;0.40;;;;;;;;;;4214381;28;20056;-35
2021/12/28 05:36:56;;;;;;;0.47;0.40;;;;;;;;;;4195656;28;20056;-35
2021/12/28 05:38:57;;;;;;;0.28;0.20;;;;;;;;;;4213778;28;20446;-34
2021/12/28 05:40:58;;;;;;;0.35;0.22;;;;;;;;;;4213963;28;20059;-35
2021/12/28 05:42:59;;;;;;;0.47;0.20;;;;;;;;;;4214254;28;20055;-35
2021/12/28 05:45:00;;;;;;;0.20;0.20;;;;;;;;;;4213798;28;20047;-35
2021/12/28 05:47:01;;;;;;;0.50;0.50;;;;;;;;;;4196043;28;20044;-35
2021/12/28 05:49:03;;;;;;;0.70;0.40;;;;;;;;;;4195799;28;20053;-35
2021/12/28 05:51:04;;;;;;;0.50;0.40;;;;;;;;;;4195833;28;20106;-35
2021/12/28 05:53:05;;;;;;;0.40;0.32;;;;;;;;;;4213265;28;20064;-35
2021/12/28 05:55:07;;;;;;;0.52;0.32;;;;;;;;;;4214001;28;20117;-35
2021/12/28 05:57:08;;;;;;;0.32;0.32;;;;;;;;;;4213618;28;20052;-34
2021/12/28 05:59:09;;;;;;;0.57;0.47;;;;;;;;;;4213947;28;20048;-34
2021/12/28 06:01:10;;;;;;;0.73;0.40;;;;;;;;;;4196017;28;20116;-35
2021/12/28 06:03:11;;;;;;;0.30;0.30;;;;;;;;;;4213770;28;20376;-34
2021/12/28 06:05:12;;;;;;;0.40;0.40;;;;;;;;;;4195743;28;20049;-34
2021/12/28 06:07:13;;;;;;;0.40;0.30;;;;;;;;;;4213444;28;20110;-35
2021/12/28 06:09:14;;;;;;;0.35;0.30;;;;;;;;;;4195900;28;20049;-35
2021/12/28 06:11:16;;;;;;;0.40;0.40;;;;;;;;;;4213598;28;20044;-35
2021/12/28 06:13:18;;;;;;;0.55;0.43;;;;;;;;;;4195731;28;20087;-35
2021/12/28 06:15:19;;;;;;;0.47;0.40;;;;;;;;;;4213601;28;20421;-35
2021/12/28 06:17:19;;;;;;;0.60;0.50;;;;;;;;;;4213370;28;20094;-35
2021/12/28 06:19:20;;;;;;;0.40;0.40;;;;;;;;;;4213411;28;20102;-35
2021/12/28 06:21:22;;;;;;;0.70;0.50;;;;;;;;;;4213740;28;20488;-35
2021/12/28 06:23:23;;;;;;;0.68;0.50;;;;;;;;;;4214311;28;20101;-35
2021/12/28 06:25:24;;;;;;;0.85;0.60;;;;;;;;;;4217275;28;20398;-35
2021/12/28 06:27:25;;;;;;;0.40;0.30;;;;;;;;;;4216860;28;20399;-35
2021/12/28 06:29:26;;;;;;;0.40;0.30;;;;;;;;;;4216912;28;20101;-34
2021/12/28 06:31:28;;;;;;;0.40;0.40;;;;;;;;;;4198912;28;20090;-35
2021/12/28 06:33:29;;;;;;;0.70;0.50;;;;;;;;;;4217010;28;20051;-34
2021/12/28 06:35:30;;;;;;;0.50;0.40;;;;;;;;;;4216815;28;20094;-35
2021/12/28 06:37:31;;;;;;;0.60;0.47;;;;;;;;;;4216716;28;20052;-33
2021/12/28 06:39:33;;;;;;;0.80;0.60;;;;;;;;;;4216970;28;20556;-34
2021/12/28 06:41:34;;;;;;;0.55;0.50;;;;;;;;;;4217005;28;20052;-34
2021/12/28 06:43:35;;;;;;;0.38;0.38;;;;;;;;;;4216840;28;20059;-34
2021/12/28 06:45:36;;;;;;;0.73;0.52;;;;;;;;;;4216860;28;20200;-34
2021/12/28 06:47:38;;;;;;;1.10;0.77;;;;;;;;;;4216478;28;20059;-34
2021/12/28 06:49:39;;;;;;;0.90;0.70;;;;;;;;;;4216674;28;20094;-34
2021/12/28 06:51:40;;;;;;;0.82;0.50;;;;;;;;;;4198539;28;20048;-34
2021/12/28 06:53:41;;;;;;;1.95;0.50;;;;;;;;;;4198737;28;20060;-34
2021/12/28 06:55:42;;;;;;;0.50;0.40;;;;;;;;;;4216271;28;20063;-34
2021/12/28 06:57:43;;;;;;;1.08;0.60;;;;;;;;;;4216458;28;20507;-34
2021/12/28 06:59:45;;;;;;;0.52;0.50;;;;;;;;;;4216293;28;20077;-34
2021/12/28 07:01:46;;;;;;;1.08;0.68;;;;;;;;;;4216479;28;20106;-34
2021/12/28 07:03:47;;;;;;;0.80;0.60;;;;;;;;;;4216557;28;20052;-34
2021/12/28 07:05:48;;;;;;;0.68;0.50;;;;;;;;;;4216135;28;20391;-34
2021/12/28 07:07:49;;;;;;;0.40;0.40;;;;;;;;;;4215685;28;20048;-34
2021/12/28 07:09:50;;;;;;;0.60;0.55;;;;;;;;;;4198359;28;20550;-33
2021/12/28 07:11:51;;;;;;;0.70;0.57;;;;;;;;;;4216250;28;20105;-34
2021/12/28 07:13:52;;;;;;;0.65;0.57;;;;;;;;;;4216421;28;20168;-34
2021/12/28 07:15:54;;;;;;;0.70;0.70;;;;;;;;;;4216030;28;20412;-34
2021/12/28 07:17:55;;;;;;;0.57;0.50;;;;;;;;;;4215407;28;20048;-34
2021/12/28 07:19:57;;;;;;;0.52;0.50;;;;;;;;;;4215963;28;20056;-34
2021/12/28 07:21:58;;;;;;;1.00;0.70;;;;;;;;;;4215521;28;20060;-34
2021/12/28 07:23:59;;;;;;;0.90;0.70;;;;;;;;;;4215768;28;20049;-34
2021/12/28 07:26:00;;;;;;;1.13;0.60;;;;;;;;;;4216296;28;20058;-34
2021/12/28 07:28:00;;;;;;;0.98;0.75;;;;;;;;;;4197715;28;20094;-34
2021/12/28 07:30:03;;;;;;;0.70;0.52;;;;;;;;;;4215758;28;20511;-34
2021/12/28 07:32:06;;;;;;;0.57;0.55;;;;;;;;;;4197753;28;20536;-34
2021/12/28 07:34:07;;;;;;;0.90;0.50;;;;;;;;;;4215428;28;20086;-34
2021/12/28 07:36:08;;;;;;;0.73;0.57;;;;;;;;;;4196966;28;20081;-34
2021/12/28 07:38:09;;;;;;;1.30;0.75;;;;;;;;;;4215367;28;20394;-35
2021/12/28 07:40:10;;;;;;;0.98;0.50;;;;;;;;;;4215640;28;20085;-34
2021/12/28 07:42:11;;;;;;;1.00;0.68;;;;;;;;;;4215654;28;20056;-35
2021/12/28 07:44:12;;;;;;;0.93;0.82;;;;;;;;;;4215877;28;20090;-35
2021/12/28 07:46:14;;;;;;;0.50;0.50;;;;;;;;;;4215962;28;20052;-34
2021/12/28 07:48:15;;;;;;;0.88;0.68;;;;;;;;;;4215882;28;20060;-35
2021/12/28 07:50:17;;;;;;;1.02;0.70;;;;;;;;;;4215746;28;20368;-34
2021/12/28 07:52:18;;;;;;;1.25;0.80;;;;;;;;;;4215032;28;20044;-35
2021/12/28 07:54:19;;;;;;;1.02;0.70;;;;;;;;;;4215584;28;20044;-34
2021/12/28 07:56:20;;;;;;;0.82;0.82;;;;;;;;;;4215670;28;20505;-34
2021/12/28 07:58:21;;;;;;;1.20;0.70;;;;;;;;;;4215449;28;20124;-34
2021/12/28 08:00:24;;;;;;;1.10;0.68;;;;;;;;;;4215701;28;20503;-34
2021/12/28 08:02:24;;;;;;;1.02;0.75;;;;;;;;;;4215261;28;20048;-34
2021/12/28 08:04:27;;;;;;;0.95;0.70;;;;;;;;;;4215391;28;20135;-35
2021/12/28 08:06:28;;;;;;;1.25;0.77;;;;;;;;;;4215554;28;20094;-34
2021/12/28 08:08:29;;;;;;;1.88;0.90;;;;;;;;;;4214827;28;20043;-34
2021/12/28 08:10:30;;;;;;;0.90;0.70;;;;;;;;;;4215136;28;20088;-34
2021/12/28 08:12:31;;;;;;;0.93;0.70;;;;;;;;;;4215203;28;20044;-34
2021/12/28 08:14:33;;;;;;;2.97;0.70;;;;;;;;;;4215060;28;20399;-34
2021/12/28 08:16:33;;;;;;;1.33;0.85;;;;;;;;;;4214992;28;20094;-34
2021/12/28 08:18:34;;;;;;;1.55;0.90;;;;;;;;;;4213898;28;20144;-34
2021/12/28 08:20:38;;;;;;;0.85;0.60;;;;;;;;;;4215055;28;20087;-34
2021/12/28 08:22:40;;;;;;;0.95;0.70;;;;;;;;;;4214291;28;20093;-35
2021/12/28 08:24:41;;;;;;;1.65;0.70;;;;;;;;;;4214526;28;20384;-35
2021/12/28 08:26:42;;;;;;;0.98;0.70;;;;;;;;;;4214656;28;20094;-34
2021/12/28 08:28:43;;;;;;;2.22;1.00;;;;;;;;;;4214605;28;20067;-34
2021/12/28 08:30:44;;;;;;;2.00;0.70;;;;;;;;;;4214717;28;20052;-33
2021/12/28 08:32:46;;;;;;;2.72;1.00;;;;;;;;;;4214839;28;20052;-34
2021/12/28 08:34:47;;;;;;;1.38;0.82;;;;;;;;;;4214695;28;20385;-34
2021/12/28 08:36:47;;;;;;;1.10;0.68;;;;;;;;;;4214267;28;20099;-34
2021/12/28 08:38:48;;;;;;;1.00;0.77;;;;;;;;;;4214422;28;20140;-35
2021/12/28 08:40:50;;;;;;;1.27;0.70;;;;;;;;;;4214545;28;20082;-34
2021/12/28 08:42:51;;;;;;;1.38;0.82;;;;;;;;;;4214516;28;20052;-34
2021/12/28 08:44:52;;;;;;;1.30;0.90;;;;;;;;;;4214672;28;20044;-34
2021/12/28 08:46:54;;;;;;;1.00;0.73;;;;;;;;;;4214287;28;20113;-34
2021/12/28 08:48:55;;;;;;;1.17;0.70;;;;;;;;;;4214706;28;20048;-33
2021/12/28 08:50:56;;;;;;;1.55;1.23;;;;;;;;;;4214617;28;20055;-34
2021/12/28 08:52:57;;;;;;;1.05;0.93;;;;;;;;;;4214009;28;20549;-34
2021/12/28 08:54:58;;;;;;;1.00;0.70;;;;;;;;;;4214515;28;20048;-34
2021/12/28 08:56:59;;;;;;;1.27;0.90;;;;;;;;;;4214245;28;20052;-35
2021/12/28 08:59:00;;;;;;;1.08;0.90;;;;;;;;;;4214439;28;20052;-34
2021/12/28 09:01:01;;;;;;;1.10;0.88;;;;;;;;;;4214601;28;20059;-35
2021/12/28 09:03:02;;;;;;;1.25;1.05;;;;;;;;;;4214396;28;20056;-34
2021/12/28 09:05:04;;;;;;;1.35;0.93;;;;;;;;;;4214402;28;20048;-34
2021/12/28 09:07:05;;;;;;;1.60;0.93;;;;;;;;;;4213980;28;20113;-34
2021/12/28 09:09:06;;;;;;;1.65;0.93;;;;;;;;;;4214213;28;20071;-34
2021/12/28 09:11:07;;;;;;;1.42;1.20;;;;;;;;;;4214244;28;20043;-34
2021/12/28 09:13:09;;;;;;;1.33;1.10;;;;;;;;;;4214137;28;20179;-34
2021/12/28 09:15:11;;;;;;;1.08;0.90;;;;;;;;;;4214251;28;20357;-34
2021/12/28 09:17:12;;;;;;;1.13;0.90;;;;;;;;;;4214121;28;20097;-34
2021/12/28 09:19:13;;;;;;;1.08;0.80;;;;;;;;;;4196253;28;20048;-34
2021/12/28 09:21:14;;;;;;;1.38;1.08;;;;;;;;;;4214282;28;20062;-35
2021/12/28 09:23:14;;;;;;;1.60;0.95;;;;;;;;;;4213408;28;20052;-34
2021/12/28 09:25:16;;;;;;;1.67;1.00;;;;;;;;;;4213374;28;20104;-34
2021/12/28 09:27:17;;;;;;;1.63;1.40;;;;;;;;;;4195919;28;20432;-35
2021/12/28 09:29:18;;;;;;;1.80;0.90;;;;;;;;;;4214147;28;20089;-34
2021/12/28 09:31:19;;;;;;;1.60;1.15;;;;;;;;;;4213357;28;20052;-36
2021/12/28 09:33:20;;;;;;;1.38;1.08;;;;;;;;;;4211236;28;20090;-34
2021/12/28 09:35:21;;;;;;;1.63;1.00;;;;;;;;;;4211158;28;20105;-34
2021/12/28 09:37:22;;;;;;;1.48;0.88;;;;;;;;;;4213341;28;20078;-34
2021/12/28 09:39:26;;;;;;;1.55;1.15;;;;;;;;;;4213638;28;20483;-35
2021/12/28 09:41:27;;;;;;;1.35;0.90;;;;;;;;;;4213877;28;20071;-34
2021/12/28 09:43:28;;;;;;;2.70;1.30;;;;;;;;;;4213704;28;20048;-34
2021/12/28 09:45:29;;;;;;;1.13;0.98;;;;;;;;;;4213664;28;20047;-34
2021/12/28 09:47:30;;;;;;;1.60;1.00;;;;;;;;;;4213546;28;20479;-36
2021/12/28 09:49:31;;;;;;;1.67;0.98;;;;;;;;;;4213627;28;20052;-34
2021/12/28 09:51:32;;;;;;;1.35;0.95;;;;;;;;;;4196044;28;20086;-34
2021/12/28 09:53:35;;;;;;;1.02;0.90;;;;;;;;;;4213370;28;20545;-34
2021/12/28 09:55:36;;;;;;;1.38;1.00;;;;;;;;;;4213883;28;20075;-34
2021/12/28 09:57:37;;;;;;;1.90;1.30;;;;;;;;;;4212846;28;20105;-34
2021/12/28 09:59:38;;;;;;;1.45;0.82;;;;;;;;;;4213396;28;20052;-34
2021/12/28 10:01:39;;;;;;;1.08;0.82;;;;;;;;;;4213471;28;20073;-34
2021/12/28 10:03:40;;;;;;;1.27;0.80;;;;;;;;;;4213634;28;20193;-34
2021/12/28 10:05:41;;;;;;;1.23;1.05;;;;;;;;;;4213595;28;20048;-34
2021/12/28 10:07:47;;;;;;;1.83;1.33;;;;;;;;;;4213137;28;20418;-34
2021/12/28 10:09:48;;;;;;;1.58;1.17;;;;;;;;;;4213796;28;20051;-34
2021/12/28 10:11:49;;;;;;;2.13;1.38;;;;;;;;;;4195600;28;20056;-34
2021/12/28 10:13:50;;;;;;;1.10;1.00;;;;;;;;;;4213810;28;20101;-34
2021/12/28 10:15:51;;;;;;;1.98;1.05;;;;;;;;;;4213911;28;20530;-34
2021/12/28 10:17:55;;;;;;;1.15;0.93;;;;;;;;;;4213558;28;20055;-34
2021/12/28 10:19:56;;;;;;;1.63;1.02;;;;;;;;;;4213864;28;20052;-34
2021/12/28 10:21:58;;;;;;;1.33;0.93;;;;;;;;;;4213086;28;20156;-35
2021/12/28 10:23:59;;;;;;;1.33;1.00;;;;;;;;;;4213429;28;20102;-35
2021/12/28 10:26:03;;;;;;;0.80;0.70;;;;;;;;;;4213717;28;20048;-35
2021/12/28 10:28:05;;;;;;;1.27;0.88;;;;;;;;;;4213399;28;20066;-35
2021/12/28 10:30:12;;;;;;;0.95;0.77;;;;;;;;;;4213411;28;20056;-35
2021/12/28 10:32:19;;;;;;;1.60;1.08;;;;;;;;;;4213317;28;20484;-35
2021/12/28 10:34:20;;;;;;;1.65;1.30;;;;;;;;;;4213723;28;20056;-34
2021/12/28 10:36:30;;;;;;;1.17;0.80;;;;;;;;;;4213630;28;20192;-34
2021/12/28 10:38:33;;;;;;;1.45;1.05;;;;;;;;;;4212686;28;20052;-34
2021/12/28 10:40:39;;;;;;;1.52;1.10;;;;;;;;;;4213404;28;20051;-34
2021/12/28 10:42:42;;;;;;;1.95;1.38;;;;;;;;;;4213634;28;20097;-34
2021/12/28 10:44:56;;;;;;;1.55;1.13;;;;;;;;;;4213501;28;20090;-35
2021/12/28 10:46:59;;;;;;;1.40;1.10;;;;;;;;;;4195388;28;20048;-35
2021/12/28 10:49:02;;;;;;;1.20;1.10;;;;;;;;;;4195460;28;20395;-35
2021/12/28 10:51:05;;;;;;;1.67;1.08;;;;;;;;;;4213120;28;20393;-35
2021/12/28 10:53:14;;;;;;;1.73;1.00;;;;;;;;;;4212575;28;20105;-35
2021/12/28 10:55:22;;;;;;;1.80;1.00;;;;;;;;;;4213293;28;20052;-35
2021/12/28 10:57:37;;;;;;;1.10;0.80;;;;;;;;;;4213615;28;20051;-34
2021/12/28 10:59:38;;;;;;;1.38;1.00;;;;;;;;;;4213128;28;20373;-35
2021/12/28 11:01:39;;;;;;;1.20;1.00;;;;;;;;;;4212961;28;20094;-35
2021/12/28 11:03:42;;;;;;;1.35;0.95;;;;;;;;;;4213004;28;20055;-34
2021/12/28 11:05:45;;;;;;;1.33;1.10;;;;;;;;;;4213001;28;20464;-35
2021/12/28 11:07:56;;;;;;;1.20;1.00;;;;;;;;;;4212778;28;20044;-36
2021/12/28 11:10:00;;;;;;;1.48;1.05;;;;;;;;;;4215028;28;20101;-35
2021/12/28 11:12:02;;;;;;;1.77;1.10;;;;;;;;;;4216277;28;20101;-35
2021/12/28 11:14:05;;;;;;;1.20;0.80;;;;;;;;;;4198163;28;20072;-35
2021/12/28 11:16:07;;;;;;;1.95;1.40;;;;;;;;;;4216149;28;20052;-35
2021/12/28 11:18:19;;;;;;;1.33;0.93;;;;;;;;;;4215930;28;20052;-35
2021/12/28 11:20:31;;;;;;;2.15;1.00;;;;;;;;;;4198143;28;20052;-35
2021/12/28 11:22:34;;;;;;;2.70;1.20;;;;;;;;;;4197431;28;20385;-35
2021/12/28 11:24:37;;;;;;;1.60;1.10;;;;;;;;;;4215871;28;20526;-36
2021/12/28 11:26:42;;;;;;;2.28;1.20;;;;;;;;;;4215941;28;20113;-35
2021/12/28 11:28:51;;;;;;;0.88;0.77;;;;;;;;;;4216066;28;20468;-35
2021/12/28 11:31:01;;;;;;;1.53;0.97;;;;;;;;;;4216230;28;20105;-35
2021/12/28 11:33:07;;;;;;;1.40;1.10;;;;;;;;;;4215756;28;20444;-35
2021/12/28 11:35:08;;;;;;;0.88;0.80;;;;;;;;;;4216007;28;20070;-35
2021/12/28 11:37:18;;;;;;;1.17;1.08;;;;;;;;;;4215124;28;20442;-35
2021/12/28 11:39:20;;;;;;;1.42;1.08;;;;;;;;;;4215825;28;20048;-36
2021/12/28 11:41:21;;;;;;;2.58;1.30;;;;;;;;;;4215855;28;20052;-35
2021/12/28 11:43:22;;;;;;;1.65;1.13;;;;;;;;;;4215482;28;20345;-35
2021/12/28 11:45:23;;;;;;;1.60;1.20;;;;;;;;;;4215376;28;20140;-35
2021/12/28 11:47:25;;;;;;;1.20;0.90;;;;;;;;;;4215645;28;20138;-35
2021/12/28 11:49:28;;;;;;;1.50;1.02;;;;;;;;;;4215663;28;20101;-35
2021/12/28 11:51:29;;;;;;;2.03;1.17;;;;;;;;;;4215401;28;20399;-36
2021/12/28 11:53:33;;;;;;;1.23;1.00;;;;;;;;;;4214932;28;20051;-35
2021/12/28 11:55:34;;;;;;;1.52;1.10;;;;;;;;;;4215592;28;20048;-35
2021/12/28 11:57:36;;;;;;;1.48;0.95;;;;;;;;;;4215201;28;20406;-35
2021/12/28 11:59:37;;;;;;;1.17;0.98;;;;;;;;;;4202694;28;20065;-36
2021/12/28 12:01:37;;;;;;;1.58;0.95;;;;;;;;;;4198435;28;20059;-35
2021/12/28 12:03:43;;;;;;;1.52;1.00;;;;;;;;;;4198613;28;20048;-35
2021/12/28 12:05:44;;;;;;;1.20;0.90;;;;;;;;;;4198501;28;20477;-35
2021/12/28 12:07:46;;;;;;;1.35;1.00;;;;;;;;;;4198285;28;20044;-35
2021/12/28 12:09:49;;;;;;;1.20;0.93;;;;;;;;;;4198447;28;20429;-35